createdAt,value
2018-05-27T00:00:11.356Z,6.77
2018-05-27T00:06:06.370Z,6.8
2018-05-27T00:12:01.382Z,7.5
2018-05-27T00:17:56.397Z,7.05
2018-05-27T00:23:51.377Z,7.55
2018-05-27T00:29:46.379Z,7.26
2018-05-27T00:35:41.376Z,7.25
2018-05-27T00:41:36.377Z,6.63
2018-05-27T00:47:31.385Z,7.56
2018-05-27T00:53:26.408Z,6.75
2018-05-27T00:59:21.438Z,7.44
2018-05-27T01:05:16.424Z,7.33
2018-05-27T01:11:11.504Z,6.99
2018-05-27T01:17:06.410Z,6.89
2018-05-27T01:23:01.444Z,7.34
2018-05-27T01:28:56.445Z,7.77
2018-05-27T01:34:51.452Z,7.24
2018-05-27T01:40:46.453Z,6.99
2018-05-27T01:46:41.479Z,7.07
2018-05-27T01:52:36.480Z,7.48
2018-05-27T01:58:31.516Z,6.77
2018-05-27T02:04:26.533Z,7.54
2018-05-27T02:10:21.485Z,7.37
2018-05-27T02:16:16.514Z,7.41
2018-05-27T02:22:11.523Z,6.88
2018-05-27T02:28:06.518Z,7.3
2018-05-27T02:34:01.566Z,7.08
2018-05-27T02:39:56.513Z,6.94
2018-05-27T02:45:51.547Z,7.53
2018-05-27T02:51:46.533Z,6.58
2018-05-27T02:57:41.602Z,6.97
2018-05-27T03:03:36.515Z,7.03
2018-05-27T03:09:31.535Z,7.36
2018-05-27T03:15:26.588Z,7.02
2018-05-27T03:21:21.578Z,6.89
2018-05-27T03:27:16.544Z,6.81
2018-05-27T03:33:11.620Z,6.49
2018-05-27T03:39:06.595Z,6.94
2018-05-27T03:45:01.784Z,6.65
2018-05-27T03:50:56.630Z,6.79
2018-05-27T03:56:51.568Z,6.29
2018-05-27T04:02:46.589Z,6.33
2018-05-27T04:08:41.601Z,5.76
2018-05-27T04:14:36.571Z,5.9
2018-05-27T04:20:31.578Z,6.11
2018-05-27T04:26:26.579Z,5.92
2018-05-27T04:32:21.647Z,5.83
2018-05-27T04:38:16.616Z,5.51
2018-05-27T04:44:11.633Z,5.91
2018-05-27T04:50:06.669Z,5.85
2018-05-27T04:56:01.624Z,5.65
2018-05-27T05:01:56.628Z,5.57
2018-05-27T05:07:51.612Z,6.63
2018-05-27T05:13:46.662Z,5.3
2018-05-27T05:19:41.658Z,7.7
2018-05-27T05:25:36.670Z,14.16
2018-05-27T05:31:31.669Z,12.5
2018-05-27T05:37:26.654Z,15.16
2018-05-27T05:43:21.660Z,14.1
2018-05-27T05:49:16.733Z,11.1
2018-05-27T05:55:11.712Z,12.32
2018-05-27T06:01:06.748Z,8.59
2018-05-27T06:07:01.674Z,9.01
2018-05-27T06:12:56.674Z,10.04
2018-05-27T06:18:51.688Z,11.04
2018-05-27T06:24:46.701Z,11.09
2018-05-27T06:30:41.712Z,10.59
2018-05-27T06:36:36.734Z,9.89
2018-05-27T06:42:31.746Z,9.03
2018-05-27T06:48:26.726Z,9.44
2018-05-27T06:54:21.760Z,9.13
2018-05-27T07:00:16.792Z,9.29
2018-05-27T07:06:11.771Z,10.11
2018-05-27T07:12:06.757Z,11.97
2018-05-27T07:18:01.793Z,14.33
2018-05-27T07:23:56.787Z,11.27
2018-05-27T07:29:51.774Z,9.77
2018-05-27T07:35:46.765Z,8.1
2018-05-27T07:41:41.780Z,7.38
2018-05-27T07:47:36.791Z,6.72
2018-05-27T07:53:31.839Z,6.01
2018-05-27T07:59:26.803Z,6.37
2018-05-27T08:05:21.829Z,6.61
2018-05-27T08:11:16.875Z,8.83
2018-05-27T08:17:11.830Z,8.72
2018-05-27T08:23:06.858Z,9.17
2018-05-27T08:29:01.851Z,9.13
